createdAt,value
2018-12-20T00:00:41.723Z,73.37
2018-12-20T00:01:41.961Z,71.47
2018-12-20T00:03:46.105Z,70.43
2018-12-20T00:04:46.372Z,70.53
2018-12-20T00:06:50.542Z,70.43
2018-12-20T00:07:50.773Z,70.34
2018-12-20T00:09:55.022Z,70.43
2018-12-20T00:10:55.193Z,70.62
2018-12-20T00:12:59.304Z,71.15
2018-12-20T00:13:59.613Z,72.52
2018-12-20T00:16:03.819Z,71.53
2018-12-20T00:17:04.068Z,71.34
2018-12-20T00:19:08.093Z,70.39
2018-12-20T00:20:08.327Z,70.39
2018-12-20T00:22:12.610Z,71.72
2018-12-20T00:23:12.731Z,73.33
2018-12-20T00:25:16.903Z,72.86
2018-12-20T00:26:17.188Z,71.44
2018-12-20T00:28:21.276Z,71.34
2018-12-20T00:29:21.511Z,71.44
2018-12-20T00:31:25.830Z,71.15
2018-12-20T00:32:25.938Z,71.15
2018-12-20T00:34:19.010Z,70.97
2018-12-20T00:35:19.278Z,70.68
2018-12-20T00:37:23.481Z,69.17
2018-12-20T00:38:23.665Z,68.69
2018-12-20T00:40:27.803Z,67.18
2018-12-20T00:41:28.052Z,66.60
2018-12-20T00:43:32.267Z,65.84
2018-12-20T00:44:37.390Z,66.13
2018-12-20T00:46:36.669Z,65.47
2018-12-20T00:47:36.936Z,65.97
2018-12-20T00:49:41.000Z,65.75
2018-12-20T00:50:41.261Z,65.75
2018-12-20T00:52:45.456Z,66.03
2018-12-20T00:53:45.635Z,65.00
2018-12-20T00:55:49.917Z,65.00
2018-12-20T00:56:50.060Z,65.00
2018-12-20T00:58:54.188Z,65.28
2018-12-20T00:59:54.424Z,65.09
2018-12-20T01:01:58.574Z,64.71
2018-12-20T01:02:58.919Z,63.67
2018-12-20T01:05:02.994Z,62.91
2018-12-20T01:06:03.217Z,62.85
2018-12-20T01:08:07.418Z,62.75
2018-12-20T01:09:07.640Z,62.53
2018-12-20T01:11:11.765Z,61.99
2018-12-20T01:12:11.998Z,61.14
2018-12-20T01:14:05.215Z,61.71
2018-12-20T01:15:05.342Z,62.28
2018-12-20T01:17:09.476Z,63.29
2018-12-20T01:18:09.708Z,62.08
2018-12-20T01:20:13.967Z,61.24
2018-12-20T01:21:14.105Z,61.52
2018-12-20T01:23:18.307Z,61.99
2018-12-20T01:24:18.564Z,62.56
2018-12-20T01:26:22.737Z,61.90
2018-12-20T01:27:22.905Z,62.85
2018-12-20T01:29:27.131Z,64.27
2018-12-20T01:30:27.307Z,64.46
2018-12-20T01:32:31.580Z,65.41
2018-12-20T01:33:31.744Z,65.03
2018-12-20T01:35:35.996Z,63.60
2018-12-20T01:36:36.121Z,63.13
2018-12-20T01:38:40.390Z,63.04
2018-12-20T01:39:40.637Z,63.04
2018-12-20T01:41:44.672Z,62.75
2018-12-20T01:42:44.911Z,63.51
2018-12-20T01:44:37.968Z,64.65
2018-12-20T01:45:38.236Z,64.55
2018-12-20T01:47:42.346Z,64.93
2018-12-20T01:48:42.655Z,66.26
2018-12-20T01:50:46.879Z,67.02
2018-12-20T01:51:46.982Z,67.21
2018-12-20T01:53:51.228Z,66.74
2018-12-20T01:54:51.649Z,66.35
2018-12-20T01:56:55.537Z,67.58
2018-12-20T01:57:55.770Z,68.54
2018-12-20T02:00:00.124Z,69.38
2018-12-20T02:01:00.167Z,69.38
2018-12-20T02:03:04.371Z,69.96
2018-12-20T02:04:04.544Z,70.62
2018-12-20T02:06:08.711Z,71.57
2018-12-20T02:07:08.944Z,71.95
2018-12-20T02:09:13.116Z,73.94
2018-12-20T02:10:13.461Z,74.41
2018-12-20T02:12:17.690Z,75.26
2018-12-20T02:13:17.733Z,75.64
2018-12-20T02:15:21.902Z,76.68
2018-12-20T02:16:22.144Z,76.68
2018-12-20T02:18:26.309Z,76.97
2018-12-20T02:19:26.518Z,77.35
2018-12-20T02:21:30.724Z,77.64
2018-12-20T02:22:30.943Z,77.16
2018-12-20T02:24:24.177Z,76.97
2018-12-20T02:25:24.325Z,76.97
2018-12-20T02:27:28.547Z,76.50
2018-12-20T02:28:28.730Z,75.98
2018-12-20T02:30:32.839Z,75.07
2018-12-20T02:31:33.045Z,75.07
2018-12-20T02:33:37.392Z,74.79
2018-12-20T02:34:37.559Z,73.94
2018-12-20T02:36:41.713Z,74.13
2018-12-20T02:37:41.821Z,73.56
2018-12-20T02:39:46.028Z,72.04
2018-12-20T02:40:46.220Z,71.76
2018-12-20T02:42:50.370Z,71.47
2018-12-20T02:43:50.603Z,71.47
2018-12-20T02:45:54.772Z,71.38
2018-12-20T02:46:55.007Z,72.23
2018-12-20T02:48:59.207Z,73.18
2018-12-20T02:49:59.440Z,72.71
2018-12-20T02:52:03.660Z,72.99
2018-12-20T02:53:03.791Z,72.71
2018-12-20T02:55:07.970Z,72.23
2018-12-20T02:56:08.188Z,72.52
2018-12-20T02:58:12.372Z,71.00
2018-12-20T02:59:12.767Z,71.28
2018-12-20T03:01:16.739Z,71.66
2018-12-20T03:02:17.053Z,72.04
2018-12-20T03:04:10.361Z,72.52
2018-12-20T03:05:10.283Z,72.71
2018-12-20T03:07:14.563Z,71.57
2018-12-20T03:08:14.764Z,71.19
2018-12-20T03:10:19.095Z,68.54
2018-12-20T03:11:19.175Z,68.15
2018-12-20T03:13:23.367Z,67.77
2018-12-20T03:14:23.544Z,67.58
2018-12-20T03:16:27.673Z,67.02
2018-12-20T03:17:27.906Z,67.40
2018-12-20T03:19:32.049Z,66.83
2018-12-20T03:20:32.361Z,66.93
2018-12-20T03:22:36.458Z,67.11
2018-12-20T03:23:36.732Z,66.83
2018-12-20T03:25:40.867Z,67.30
2018-12-20T03:26:41.101Z,67.49
2018-12-20T03:28:45.544Z,67.21
2018-12-20T03:29:45.618Z,66.74
2018-12-20T03:31:49.646Z,66.03
2018-12-20T03:32:49.883Z,65.47
2018-12-20T03:34:43.267Z,64.42
2018-12-20T03:35:43.190Z,64.14
2018-12-20T03:37:47.373Z,62.82
2018-12-20T03:38:47.871Z,62.43
2018-12-20T03:40:51.752Z,61.61
2018-12-20T03:41:51.990Z,61.61
2018-12-20T03:43:56.150Z,61.99
2018-12-20T03:44:56.663Z,61.71
2018-12-20T03:47:00.577Z,62.85
2018-12-20T03:48:00.973Z,62.94
2018-12-20T03:50:04.931Z,63.04
2018-12-20T03:51:05.167Z,63.98
2018-12-20T03:53:09.496Z,63.70
2018-12-20T03:54:09.565Z,63.89
2018-12-20T03:56:13.893Z,63.98
2018-12-20T03:57:14.014Z,63.79
2018-12-20T03:59:18.329Z,63.79
2018-12-20T04:00:18.375Z,63.32
2018-12-20T04:02:22.679Z,63.51
2018-12-20T04:03:22.787Z,64.17
2018-12-20T04:05:26.933Z,64.08
2018-12-20T04:06:27.167Z,64.17
2018-12-20T04:08:31.415Z,64.84
2018-12-20T04:09:31.606Z,64.55
2018-12-20T04:11:35.720Z,65.03
2018-12-20T04:12:36.032Z,64.74
2018-12-20T04:14:29.124Z,64.74
2018-12-20T04:15:37.578Z,63.79
2018-12-20T04:17:33.488Z,63.42
2018-12-20T04:18:33.673Z,63.32
2018-12-20T04:20:37.872Z,63.70
2018-12-20T04:21:38.053Z,63.60
2018-12-20T04:23:42.336Z,62.18
2018-12-20T04:24:42.649Z,62.28
2018-12-20T04:26:46.595Z,61.24
2018-12-20T04:27:46.872Z,61.24
2018-12-20T04:29:51.102Z,61.46
2018-12-20T04:30:51.274Z,61.27
2018-12-20T04:32:55.394Z,61.65
2018-12-20T04:33:55.811Z,61.08
2018-12-20T04:35:59.951Z,61.46
2018-12-20T04:37:00.145Z,61.74
2018-12-20T04:39:04.169Z,62.21
2018-12-20T04:40:04.401Z,62.31
2018-12-20T04:42:08.759Z,62.88
2018-12-20T04:43:08.786Z,63.64
2018-12-20T04:45:13.173Z,63.92
2018-12-20T04:46:13.218Z,64.87
2018-12-20T04:48:17.556Z,65.25
2018-12-20T04:49:17.584Z,65.25
2018-12-20T04:51:21.749Z,66.20
2018-12-20T04:52:22.046Z,66.29
2018-12-20T04:54:15.053Z,67.05
2018-12-20T04:55:15.319Z,66.77
2018-12-20T04:57:19.551Z,68.00
2018-12-20T04:58:19.867Z,68.38
2018-12-20T05:00:23.834Z,68.38
2018-12-20T05:01:24.075Z,68.66
2018-12-20T05:03:28.449Z,68.76
2018-12-20T05:04:28.478Z,69.04
2018-12-20T05:06:32.622Z,68.95
2018-12-20T05:07:33.074Z,68.38
2018-12-20T05:09:37.024Z,67.81
2018-12-20T05:10:37.298Z,68.29
2018-12-20T05:12:41.440Z,68.29
2018-12-20T05:13:41.637Z,68.00
2018-12-20T05:15:45.801Z,67.43
2018-12-20T05:16:46.070Z,67.33
2018-12-20T05:18:50.265Z,67.71
2018-12-20T05:19:50.631Z,67.43
2018-12-20T05:21:54.580Z,67.05
2018-12-20T05:22:54.812Z,66.86
2018-12-20T05:24:58.976Z,65.82
2018-12-20T05:25:59.249Z,65.44
2018-12-20T05:28:03.354Z,64.49
2018-12-20T05:29:03.708Z,64.78
2018-12-20T05:31:08.800Z,63.54
2018-12-20T05:32:08.000Z,62.97
2018-12-20T05:34:01.123Z,62.69
2018-12-20T05:35:01.293Z,61.74
2018-12-20T05:37:05.540Z,61.74
2018-12-20T05:38:05.916Z,62.02
2018-12-20T05:40:09.864Z,63.26
2018-12-20T05:41:10.216Z,63.07
2018-12-20T05:43:14.438Z,63.86
2018-12-20T05:44:14.596Z,63.64
2018-12-20T05:46:18.791Z,64.11
2018-12-20T05:47:18.874Z,65.09
2018-12-20T05:49:23.046Z,65.75
2018-12-20T05:50:23.295Z,65.85
2018-12-20T05:52:27.425Z,67.08
2018-12-20T05:53:27.682Z,67.46
2018-12-20T05:55:31.835Z,69.46
2018-12-20T05:56:32.072Z,70.59
2018-12-20T05:58:36.320Z,71.36
2018-12-20T05:59:36.531Z,71.55
2018-12-20T06:01:40.749Z,71.55
2018-12-20T06:02:41.012Z,71.92
2018-12-20T06:04:33.946Z,70.50
2018-12-20T06:05:34.237Z,69.93
2018-12-20T06:07:38.354Z,69.46
2018-12-20T06:08:38.558Z,69.84
2018-12-20T06:10:42.923Z,69.84
2018-12-20T06:11:43.118Z,70.50
2018-12-20T06:13:47.135Z,70.40
2018-12-20T06:14:47.333Z,70.21
2018-12-20T06:16:51.503Z,69.93
2018-12-20T06:17:51.859Z,69.46
2018-12-20T06:19:56.114Z,69.55
2018-12-20T06:20:56.144Z,69.74
2018-12-20T06:23:00.280Z,69.74
2018-12-20T06:24:00.514Z,70.59
2018-12-20T06:26:04.684Z,71.07
2018-12-20T06:27:04.919Z,71.36
2018-12-20T06:29:09.058Z,71.64
2018-12-20T06:30:09.302Z,72.11
2018-12-20T06:32:13.467Z,74.68
2018-12-20T06:33:13.703Z,74.96
2018-12-20T06:35:17.848Z,76.67
2018-12-20T06:36:18.084Z,76.39
2018-12-20T06:38:22.247Z,76.48
2018-12-20T06:39:22.483Z,77.43
2018-12-20T06:41:26.652Z,79.42
2018-12-20T06:42:26.886Z,79.80
2018-12-20T06:44:19.955Z,80.08
2018-12-20T06:45:20.194Z,80.18
2018-12-20T06:47:24.358Z,81.88
2018-12-20T06:48:24.592Z,82.36
2018-12-20T06:50:28.735Z,81.79
2018-12-20T06:51:28.969Z,83.12
2018-12-20T06:53:33.138Z,83.69
2018-12-20T06:54:33.372Z,85.68
2018-12-20T06:56:37.542Z,87.20
2018-12-20T06:57:37.776Z,86.72
2018-12-20T06:59:41.922Z,86.63
2018-12-20T07:00:42.164Z,86.72
2018-12-20T07:02:46.323Z,85.21
2018-12-20T07:03:46.559Z,84.74
2018-12-20T07:05:50.706Z,83.12
2018-12-20T07:06:50.940Z,82.93
2018-12-20T07:08:55.108Z,82.36
2018-12-20T07:09:55.343Z,81.88
2018-12-20T07:11:59.510Z,85.02
2018-12-20T07:12:59.744Z,83.50
2018-12-20T07:15:03.889Z,84.26
2018-12-20T07:16:04.125Z,84.55
2018-12-20T07:18:08.291Z,82.84
2018-12-20T07:19:08.523Z,83.78
2018-12-20T07:21:12.673Z,85.78
2018-12-20T07:22:12.911Z,87.20
2018-12-20T07:24:06.017Z,87.30
2018-12-20T07:25:06.250Z,87.20
2018-12-20T07:27:10.432Z,90.24
2018-12-20T07:28:10.664Z,90.52
2018-12-20T07:30:14.814Z,92.52
2018-12-20T07:31:15.047Z,92.14
2018-12-20T07:33:19.216Z,91.94
2018-12-20T07:34:19.451Z,91.94
2018-12-20T07:36:23.601Z,90.81
2018-12-20T07:37:24.349Z,91.38
2018-12-20T07:39:28.010Z,91.94
2018-12-20T07:40:28.245Z,91.94
2018-12-20T07:42:32.417Z,93.08
2018-12-20T07:43:32.653Z,93.65
2018-12-20T07:45:36.798Z,95.17
2018-12-20T07:46:37.956Z,95.55
2018-12-20T07:48:41.200Z,96.22
2018-12-20T07:49:41.434Z,96.59
2018-12-20T07:51:45.579Z,96.88
2018-12-20T07:52:45.824Z,96.78
2018-12-20T07:54:38.909Z,97.26
2018-12-20T07:55:39.145Z,97.45
2018-12-20T07:57:43.314Z,96.88
2018-12-20T07:58:43.545Z,96.41
2018-12-20T08:00:47.690Z,97.17
2018-12-20T08:01:47.925Z,96.31
2018-12-20T08:03:52.095Z,95.36
2018-12-20T08:04:52.333Z,95.46
2018-12-20T08:06:56.479Z,94.89
2018-12-20T08:07:56.710Z,93.37
2018-12-20T08:10:00.876Z,89.95
2018-12-20T08:11:01.114Z,88.91
2018-12-20T08:13:05.276Z,87.11
2018-12-20T08:14:05.513Z,87.58
2018-12-20T08:16:09.655Z,86.16
2018-12-20T08:17:09.979Z,85.59
2018-12-20T08:19:14.059Z,85.87
2018-12-20T08:20:14.292Z,86.16
2018-12-20T08:22:18.438Z,85.02
2018-12-20T08:23:18.671Z,84.26
2018-12-20T08:25:22.837Z,85.68
2018-12-20T08:26:23.073Z,86.82
2018-12-20T08:28:27.241Z,87.30
2018-12-20T08:29:27.475Z,86.54
2018-12-20T08:31:31.670Z,86.82
2018-12-20T08:32:31.862Z,85.68
2018-12-20T08:34:24.953Z,85.40
2018-12-20T08:35:25.188Z,85.87
2018-12-20T08:37:29.338Z,84.83
2018-12-20T08:38:29.571Z,82.55
2018-12-20T08:40:33.741Z,84.64
2018-12-20T08:41:33.975Z,82.65
2018-12-20T08:43:38.120Z,83.59
2018-12-20T08:44:38.356Z,83.03
2018-12-20T08:46:42.524Z,86.25
2018-12-20T08:47:42.758Z,85.78
2018-12-20T08:49:46.925Z,89.86
2018-12-20T08:50:47.159Z,88.43
2018-12-20T08:52:51.310Z,91.52
2018-12-20T08:53:51.545Z,91.47
2018-12-20T08:55:55.718Z,92.66
2018-12-20T08:56:55.950Z,93.89
2018-12-20T08:59:01.145Z,94.27
2018-12-20T09:00:01.378Z,94.93
2018-12-20T09:02:05.519Z,96.17
2018-12-20T09:03:05.752Z,97.22
2018-12-20T09:05:09.919Z,96.45
2018-12-20T09:06:10.155Z,93.99
2018-12-20T09:08:14.301Z,94.08
2018-12-20T09:09:14.533Z,95.12
2018-12-20T09:11:19.548Z,94.84
2018-12-20T09:12:19.783Z,95.98
2018-12-20T09:14:12.879Z,98.35
2018-12-20T09:15:13.115Z,97.50
2018-12-20T09:17:17.280Z,96.55
2018-12-20T09:18:17.516Z,96.55
2018-12-20T09:20:21.684Z,97.22
2018-12-20T09:21:21.917Z,97.88
2018-12-20T09:23:26.061Z,96.17
2018-12-20T09:24:26.300Z,95.79
2018-12-20T09:26:30.471Z,94.56
2018-12-20T09:27:30.704Z,94.27
2018-12-20T09:29:34.850Z,92.75
2018-12-20T09:30:35.085Z,91.80
2018-12-20T09:32:39.251Z,89.24
2018-12-20T09:33:39.490Z,87.43
2018-12-20T09:35:43.655Z,87.24
2018-12-20T09:36:43.891Z,87.01
2018-12-20T09:38:48.036Z,85.63
2018-12-20T09:39:48.272Z,85.53
2018-12-20T09:41:52.439Z,83.54
2018-12-20T09:42:52.672Z,82.97
2018-12-20T09:44:45.747Z,82.12
2018-12-20T09:45:45.986Z,81.93
2018-12-20T09:47:50.152Z,82.12
2018-12-20T09:48:50.388Z,81.07
2018-12-20T09:50:54.550Z,79.74
2018-12-20T09:51:54.786Z,78.32
2018-12-20T09:53:58.932Z,76.29
2018-12-20T09:54:59.164Z,75.38
2018-12-20T09:57:04.340Z,72.59
2018-12-20T09:58:04.573Z,72.11
2018-12-20T10:00:08.717Z,70.63
2018-12-20T10:01:08.951Z,70.12
2018-12-20T10:03:13.116Z,68.98
2018-12-20T10:04:13.354Z,67.75
2018-12-20T10:06:17.521Z,66.99
2018-12-20T10:07:17.755Z,66.89
2018-12-20T10:09:21.906Z,65.75
2018-12-20T10:10:22.144Z,65.37
2018-12-20T10:12:26.305Z,65.66
2018-12-20T10:13:26.537Z,66.04
2018-12-20T10:15:30.714Z,66.33
2018-12-20T10:16:30.951Z,66.14
2018-12-20T10:18:35.095Z,65.00
2018-12-20T10:19:35.328Z,65.19
2018-12-20T10:21:39.502Z,65.28
2018-12-20T10:22:39.737Z,65.37
2018-12-20T10:24:32.810Z,66.14
2018-12-20T10:25:33.048Z,66.52
2018-12-20T10:27:37.217Z,66.27
2018-12-20T10:28:37.451Z,67.50
2018-12-20T10:30:41.601Z,68.44
2018-12-20T10:31:41.835Z,69.78
2018-12-20T10:33:46.007Z,73.86
2018-12-20T10:34:46.242Z,76.04
2018-12-20T10:36:50.415Z,77.37
2018-12-20T10:37:50.647Z,76.23
2018-12-20T10:39:54.795Z,76.23
2018-12-20T10:40:55.029Z,76.23
2018-12-20T10:42:59.200Z,75.38
2018-12-20T10:43:59.432Z,74.24
2018-12-20T10:46:03.608Z,74.15
2018-12-20T10:47:03.845Z,74.81
2018-12-20T10:49:07.987Z,73.38
2018-12-20T10:50:08.221Z,77.09
2018-12-20T10:52:12.389Z,76.14
2018-12-20T10:53:12.623Z,74.33
2018-12-20T10:55:16.768Z,77.28
2018-12-20T10:56:17.005Z,78.23
2018-12-20T10:58:21.487Z,79.74
2018-12-20T10:59:21.411Z,79.65
2018-12-20T11:01:25.580Z,82.50
2018-12-20T11:02:25.817Z,83.92
2018-12-20T11:04:18.896Z,81.93
2018-12-20T11:05:19.133Z,82.03
2018-12-20T11:07:23.301Z,84.87
2018-12-20T11:08:23.537Z,83.36
2018-12-20T11:10:27.685Z,83.16
2018-12-20T11:11:27.918Z,82.40
2018-12-20T11:13:32.083Z,85.44
2018-12-20T11:14:32.322Z,82.69
2018-12-20T11:16:36.469Z,82.88
2018-12-20T11:17:37.445Z,82.78
2018-12-20T11:19:40.878Z,82.59
2018-12-20T11:20:41.115Z,82.59
2018-12-20T11:22:45.281Z,83.45
2018-12-20T11:23:45.519Z,85.35
2018-12-20T11:25:49.664Z,86.43
2018-12-20T11:26:49.901Z,88.67
2018-12-20T11:28:54.072Z,85.58
2018-12-20T11:29:54.304Z,86.87
2018-12-20T11:31:58.650Z,87.10
2018-12-20T11:32:59.672Z,87.29
2018-12-20T11:35:02.956Z,90.00
2018-12-20T11:36:03.197Z,90.33
2018-12-20T11:38:07.348Z,91.38
2018-12-20T11:39:08.463Z,89.47
2018-12-20T11:41:11.785Z,91.47
2018-12-20T11:42:12.028Z,92.23
2018-12-20T11:44:05.114Z,91.56
2018-12-20T11:45:05.358Z,90.38
2018-12-20T11:47:09.524Z,90.71
2018-12-20T11:48:09.777Z,89.67
2018-12-20T11:50:13.966Z,88.01
2018-12-20T11:51:14.200Z,87.38
2018-12-20T11:53:18.373Z,88.81
2018-12-20T11:54:18.592Z,88.15
2018-12-20T11:56:22.760Z,90.42
2018-12-20T11:57:22.994Z,90.42
2018-12-20T11:59:27.137Z,92.23
2018-12-20T12:00:27.376Z,92.13
2018-12-20T12:02:31.546Z,94.23
2018-12-20T12:03:31.778Z,94.32
2018-12-20T12:05:35.940Z,93.94
2018-12-20T12:06:36.175Z,94.23
2018-12-20T12:08:40.325Z,96.03
2018-12-20T12:09:40.560Z,95.17
2018-12-20T12:11:44.726Z,97.17
2018-12-20T12:12:44.964Z,96.79
2018-12-20T12:14:38.070Z,99.44
2018-12-20T12:15:38.315Z,99.99
2018-12-20T12:17:42.479Z,99.99
2018-12-20T12:18:42.716Z,99.99
2018-12-20T12:20:46.881Z,99.99
2018-12-20T12:21:47.114Z,99.99
2018-12-20T12:23:51.259Z,99.99
2018-12-20T12:24:51.495Z,99.99
2018-12-20T12:26:55.667Z,99.99
2018-12-20T12:27:55.901Z,99.99
2018-12-20T12:30:00.069Z,99.99
2018-12-20T12:31:00.303Z,99.99
2018-12-20T12:33:04.448Z,99.99
2018-12-20T12:34:04.682Z,99.99
2018-12-20T12:36:08.850Z,99.99
2018-12-20T12:37:09.085Z,99.99
2018-12-20T12:39:13.234Z,99.99
2018-12-20T12:40:13.469Z,99.99
2018-12-20T12:42:17.635Z,99.99
2018-12-20T12:43:17.869Z,99.99
2018-12-20T12:45:22.039Z,99.99
2018-12-20T12:46:22.277Z,99.99
2018-12-20T12:48:26.422Z,99.99
2018-12-20T12:49:26.661Z,99.99
2018-12-20T12:51:30.828Z,99.99
2018-12-20T12:52:31.065Z,99.99
2018-12-20T12:54:24.145Z,99.99
2018-12-20T12:55:24.474Z,99.99
2018-12-20T12:57:28.555Z,99.92
2018-12-20T12:58:28.786Z,99.99
2018-12-20T13:00:32.958Z,98.21
2018-12-20T13:01:33.193Z,99.99
2018-12-20T13:03:37.340Z,99.99
2018-12-20T13:04:37.572Z,99.99
2018-12-20T13:06:41.742Z,99.83
2018-12-20T13:07:41.974Z,98.88
2018-12-20T13:09:46.122Z,99.99
2018-12-20T13:10:46.359Z,99.99
2018-12-20T13:12:50.528Z,99.99
2018-12-20T13:13:50.763Z,99.99
2018-12-20T13:15:54.927Z,99.99
2018-12-20T13:16:55.163Z,99.99
2018-12-20T13:18:59.314Z,99.99
2018-12-20T13:19:59.549Z,99.99
2018-12-20T13:22:03.725Z,99.99
2018-12-20T13:23:03.959Z,99.83
2018-12-20T13:25:08.142Z,98.31
2018-12-20T13:26:08.373Z,98.35
2018-12-20T13:28:12.553Z,98.35
2018-12-20T13:29:12.788Z,99.44
2018-12-20T13:31:17.032Z,99.97
2018-12-20T13:32:17.283Z,99.54
2018-12-20T13:34:10.391Z,99.99
2018-12-20T13:35:10.682Z,99.99
2018-12-20T13:37:15.900Z,99.99
2018-12-20T13:38:15.079Z,99.99
2018-12-20T13:40:19.256Z,99.99
2018-12-20T13:41:19.590Z,99.99
2018-12-20T13:43:23.764Z,99.99
2018-12-20T13:44:23.999Z,99.99
2018-12-20T13:46:28.168Z,99.97
2018-12-20T13:47:28.405Z,99.87
2018-12-20T13:49:32.549Z,99.99
2018-12-20T13:50:32.837Z,99.30
2018-12-20T13:52:37.000Z,99.99
2018-12-20T13:53:37.242Z,99.99
2018-12-20T13:55:41.381Z,99.99
2018-12-20T13:56:41.632Z,99.99
2018-12-20T13:58:45.802Z,99.99
2018-12-20T13:59:46.037Z,99.99
2018-12-20T14:01:50.207Z,99.99
2018-12-20T14:02:50.440Z,99.99
2018-12-20T14:04:43.601Z,99.99
2018-12-20T14:05:43.928Z,99.99
2018-12-20T14:07:48.098Z,99.99
2018-12-20T14:08:48.334Z,99.99
2018-12-20T14:10:52.496Z,99.99
2018-12-20T14:11:52.728Z,99.99
2018-12-20T14:13:56.908Z,99.99
2018-12-20T14:14:57.141Z,99.99
2018-12-20T14:17:01.320Z,99.99
2018-12-20T14:18:01.543Z,99.99
2018-12-20T14:20:05.688Z,99.99
2018-12-20T14:21:05.920Z,99.99
2018-12-20T14:23:10.303Z,99.99
2018-12-20T14:24:10.418Z,99.99
2018-12-20T14:26:15.646Z,99.99
2018-12-20T14:27:15.877Z,99.99
2018-12-20T14:29:20.075Z,99.99
2018-12-20T14:30:20.306Z,99.99
2018-12-20T14:32:24.610Z,99.99
2018-12-20T14:33:24.852Z,99.99
2018-12-20T14:35:28.998Z,99.99
2018-12-20T14:36:29.387Z,99.99
2018-12-20T14:38:33.717Z,99.99
2018-12-20T14:39:34.032Z,99.99
2018-12-20T14:41:38.331Z,99.99
2018-12-20T14:42:38.565Z,99.99
2018-12-20T14:44:31.721Z,99.11
2018-12-20T14:45:32.057Z,99.58
2018-12-20T14:47:36.266Z,97.31
2018-12-20T14:48:39.472Z,97.50
2018-12-20T14:50:40.756Z,97.88
2018-12-20T14:51:41.071Z,99.11
2018-12-20T14:53:45.391Z,96.74
2018-12-20T14:54:45.749Z,96.17
2018-12-20T14:56:50.059Z,97.22
2018-12-20T14:57:50.380Z,97.22
2018-12-20T14:59:54.528Z,96.93
2018-12-20T15:00:54.845Z,96.17
2018-12-20T15:02:59.180Z,98.07
2018-12-20T15:03:59.401Z,99.02
2018-12-20T15:06:03.590Z,99.49
2018-12-20T15:07:03.780Z,97.88
2018-12-20T15:09:07.954Z,97.69
2018-12-20T15:10:08.179Z,97.02
2018-12-20T15:12:12.346Z,97.02
2018-12-20T15:13:12.580Z,96.36
2018-12-20T15:15:16.729Z,97.88
2018-12-20T15:16:16.981Z,97.60
2018-12-20T15:18:21.135Z,96.74
2018-12-20T15:19:21.371Z,97.31
2018-12-20T15:21:25.520Z,97.12
2018-12-20T15:22:25.756Z,97.60
2018-12-20T15:24:18.854Z,98.54
2018-12-20T15:25:19.089Z,99.11
2018-12-20T15:27:23.253Z,97.50
2018-12-20T15:28:23.489Z,97.02
2018-12-20T15:30:27.674Z,97.97
2018-12-20T15:31:27.901Z,97.78
2018-12-20T15:33:33.570Z,98.83
2018-12-20T15:34:32.476Z,98.54
2018-12-20T15:36:36.653Z,97.22
2018-12-20T15:37:36.885Z,96.74
2018-12-20T15:39:41.095Z,98.45
2018-12-20T15:40:41.332Z,97.12
2018-12-20T15:42:45.650Z,97.60
2018-12-20T15:43:45.964Z,97.22
2018-12-20T15:45:50.153Z,98.07
2018-12-20T15:46:50.386Z,96.93
2018-12-20T15:48:43.487Z,95.27
2018-12-20T15:49:43.735Z,94.65
2018-12-20T15:51:47.873Z,93.46
2018-12-20T15:52:48.113Z,93.46
2018-12-20T15:54:41.282Z,93.99
2018-12-20T15:55:41.609Z,94.93
2018-12-20T15:57:46.796Z,94.51
2018-12-20T15:58:47.027Z,95.98
2018-12-20T16:00:51.222Z,96.36
2018-12-20T16:01:51.454Z,97.31
2018-12-20T16:03:55.626Z,97.78
2018-12-20T16:04:55.864Z,97.12
2018-12-20T16:07:00.007Z,97.31
2018-12-20T16:08:00.296Z,97.12
2018-12-20T16:10:04.562Z,96.36
2018-12-20T16:11:04.790Z,95.60
2018-12-20T16:13:08.954Z,92.75
2018-12-20T16:14:09.230Z,93.60
2018-12-20T16:16:13.375Z,92.37
2018-12-20T16:17:13.642Z,92.94
2018-12-20T16:19:17.809Z,91.00
2018-12-20T16:20:18.043Z,90.33
2018-12-20T16:22:22.208Z,88.81
2018-12-20T16:23:22.518Z,89.39
2018-12-20T16:25:26.664Z,90.28
2018-12-20T16:26:26.974Z,90.24
2018-12-20T16:28:31.148Z,92.09
2018-12-20T16:29:31.400Z,92.85
2018-12-20T16:31:35.556Z,92.52
2018-12-20T16:32:35.839Z,92.80
2018-12-20T16:34:29.058Z,94.08
2018-12-20T16:35:29.290Z,93.70
2018-12-20T16:37:33.511Z,93.27
2018-12-20T16:38:33.735Z,93.80
2018-12-20T16:40:37.885Z,94.37
2018-12-20T16:41:38.155Z,94.65
2018-12-20T16:43:42.402Z,93.80
2018-12-20T16:44:42.741Z,92.71
2018-12-20T16:46:46.891Z,92.94
2018-12-20T16:47:47.125Z,91.94
2018-12-20T16:49:51.302Z,91.99
2018-12-20T16:50:51.538Z,91.38
2018-12-20T16:52:55.702Z,91.85
2018-12-20T16:53:55.940Z,92.71
2018-12-20T16:56:00.088Z,91.75
2018-12-20T16:57:00.323Z,92.14
2018-12-20T16:59:04.501Z,90.52
2018-12-20T17:00:04.729Z,90.14
2018-12-20T17:02:08.873Z,88.15
2018-12-20T17:03:09.108Z,87.11
2018-12-20T17:05:13.282Z,85.97
2018-12-20T17:06:13.518Z,86.16
2018-12-20T17:08:17.691Z,85.68
2018-12-20T17:09:17.923Z,86.16
2018-12-20T17:11:22.073Z,86.25
2018-12-20T17:12:22.306Z,86.35
2018-12-20T17:14:15.406Z,86.72
2018-12-20T17:15:15.641Z,86.35
2018-12-20T17:17:19.790Z,86.72
2018-12-20T17:18:20.027Z,86.72
2018-12-20T17:20:24.197Z,86.54
2018-12-20T17:21:24.435Z,86.72
2018-12-20T17:23:35.595Z,86.82
2018-12-20T17:24:28.842Z,86.54
2018-12-20T17:26:32.983Z,86.87
2018-12-20T17:27:33.216Z,86.54
2018-12-20T17:29:37.388Z,86.54
2018-12-20T17:30:37.625Z,86.20
2018-12-20T17:32:41.769Z,87.39
2018-12-20T17:33:42.006Z,88.91
2018-12-20T17:35:46.175Z,88.06
2018-12-20T17:36:46.407Z,88.01
2018-12-20T17:38:50.579Z,88.86
2018-12-20T17:39:50.813Z,87.96
2018-12-20T17:41:54.959Z,88.20
2018-12-20T17:42:55.193Z,87.49
2018-12-20T17:44:59.358Z,86.72
2018-12-20T17:45:59.594Z,86.72
2018-12-20T17:48:03.768Z,85.63
2018-12-20T17:49:04.008Z,84.26
2018-12-20T17:51:08.202Z,82.93
2018-12-20T17:52:08.405Z,83.40
2018-12-20T17:54:01.496Z,82.40
2018-12-20T17:55:01.731Z,81.84
2018-12-20T17:57:05.877Z,79.99
2018-12-20T17:58:06.111Z,79.80
2018-12-20T18:00:10.280Z,79.04
2018-12-20T18:01:10.513Z,78.47
2018-12-20T18:03:14.683Z,79.33
2018-12-20T18:04:14.916Z,79.14
2018-12-20T18:06:19.089Z,79.80
2018-12-20T18:07:19.328Z,78.75
2018-12-20T18:09:23.508Z,77.71
2018-12-20T18:10:23.743Z,77.62
2018-12-20T18:12:27.896Z,77.81
2018-12-20T18:13:28.131Z,78.00
2018-12-20T18:15:32.304Z,77.33
2018-12-20T18:16:32.569Z,76.57
2018-12-20T18:18:36.718Z,74.96
2018-12-20T18:19:39.184Z,74.49
2018-12-20T18:21:41.100Z,75.91
2018-12-20T18:22:41.335Z,76.10
2018-12-20T18:24:34.488Z,75.91
2018-12-20T18:25:34.718Z,75.15
2018-12-20T18:27:38.864Z,74.58
2018-12-20T18:28:39.098Z,74.68
2018-12-20T18:30:43.275Z,75.05
2018-12-20T18:31:43.508Z,75.05
2018-12-20T18:33:47.772Z,75.72
2018-12-20T18:34:49.475Z,77.24
2018-12-20T18:36:52.223Z,78.75
2018-12-20T18:37:52.513Z,79.23
2018-12-20T18:39:56.682Z,84.97
2018-12-20T18:40:56.911Z,86.49
2018-12-20T18:43:01.858Z,87.24
2018-12-20T18:44:01.341Z,88.20
2018-12-20T18:46:05.578Z,88.57
2018-12-20T18:47:05.826Z,88.86
2018-12-20T18:49:09.978Z,89.05
2018-12-20T18:50:10.224Z,90.09
2018-12-20T18:52:14.358Z,91.24
2018-12-20T18:53:14.593Z,91.71
2018-12-20T18:55:18.834Z,90.47
2018-12-20T18:56:19.066Z,90.38
2018-12-20T18:58:23.237Z,91.33
2018-12-20T18:59:23.470Z,91.04
2018-12-20T19:01:27.647Z,90.38
2018-12-20T19:02:27.882Z,90.57
2018-12-20T19:04:20.975Z,90.14
2018-12-20T19:05:21.210Z,90.76
2018-12-20T19:07:25.354Z,91.89
2018-12-20T19:08:25.590Z,91.42
2018-12-20T19:10:29.758Z,92.37
2018-12-20T19:11:29.993Z,92.09
2018-12-20T19:13:34.136Z,91.24
2018-12-20T19:14:34.441Z,91.99
2018-12-20T19:16:38.604Z,90.28
2018-12-20T19:17:38.840Z,90.66
2018-12-20T19:19:43.005Z,89.81
2018-12-20T19:20:43.245Z,89.53
2018-12-20T19:22:47.375Z,91.61
2018-12-20T19:23:47.621Z,92.09
2018-12-20T19:25:51.790Z,91.04
2018-12-20T19:26:52.025Z,93.32
2018-12-20T19:28:56.170Z,96.26
2018-12-20T19:29:56.406Z,96.83
2018-12-20T19:32:00.571Z,98.16
2018-12-20T19:33:00.806Z,99.77
2018-12-20T19:35:04.973Z,99.99
2018-12-20T19:36:05.206Z,99.99
2018-12-20T19:38:09.358Z,99.99
2018-12-20T19:39:09.591Z,99.99
2018-12-20T19:41:13.766Z,99.99